sensor_id;sensor_type;location;lat;lon;timestamp;temperature;humidity
70550;DHT22;58101;48.658;2.328;2022-12-16T00:01:22;-0.10;98.50
70550;DHT22;58101;48.658;2.328;2022-12-16T00:03:53;-0.10;98.70
70550;DHT22;58101;48.658;2.328;2022-12-16T00:06:20;-0.10;98.60
70550;DHT22;58101;48.658;2.328;2022-12-16T00:08:47;-0.10;98.70
70550;DHT22;58101;48.658;2.328;2022-12-16T00:11:12;-0.10;98.80
70550;DHT22;58101;48.658;2.328;2022-12-16T00:13:39;-0.10;98.80
70550;DHT22;58101;48.658;2.328;2022-12-16T00:16:10;-0.20;99.00
70550;DHT22;58101;48.658;2.328;2022-12-16T00:18:36;-0.20;99.00
70550;DHT22;58101;48.658;2.328;2022-12-16T00:21:02;-0.20;99.00
70550;DHT22;58101;48.658;2.328;2022-12-16T00:23:29;-0.20;98.80
70550;DHT22;58101;48.658;2.328;2022-12-16T00:25:55;-0.10;98.70
70550;DHT22;58101;48.658;2.328;2022-12-16T00:28:20;-0.20;98.70
70550;DHT22;58101;48.658;2.328;2022-12-16T00:30:50;-0.20;98.80
70550;DHT22;58101;48.658;2.328;2022-12-16T00:33:17;-0.20;98.80
70550;DHT22;58101;48.658;2.328;2022-12-16T00:35:43;-0.20;99.20
70550;DHT22;58101;48.658;2.328;2022-12-16T00:38:09;-0.20;98.80
70550;DHT22;58101;48.658;2.328;2022-12-16T00:40:34;-0.20;98.70
70550;DHT22;58101;48.658;2.328;2022-12-16T00:43:00;-0.20;98.70
70550;DHT22;58101;48.658;2.328;2022-12-16T00:45:26;-0.20;98.70
70550;DHT22;58101;48.658;2.328;2022-12-16T00:47:51;-0.20;98.90
70550;DHT22;58101;48.658;2.328;2022-12-16T00:50:18;-0.20;99.10
70550;DHT22;58101;48.658;2.328;2022-12-16T00:52:45;-0.20;99.30
70550;DHT22;58101;48.658;2.328;2022-12-16T00:55:12;-0.20;99.30
70550;DHT22;58101;48.658;2.328;2022-12-16T00:57:38;-0.30;99.30
70550;DHT22;58101;48.658;2.328;2022-12-16T01:00:04;-0.20;99.40
70550;DHT22;58101;48.658;2.328;2022-12-16T01:02:30;-0.30;99.60
70550;DHT22;58101;48.658;2.328;2022-12-16T01:04:56;-0.30;99.80
70550;DHT22;58101;48.658;2.328;2022-12-16T01:07:22;-0.30;99.80
70550;DHT22;58101;48.658;2.328;2022-12-16T01:09:48;-0.40;99.90
70550;DHT22;58101;48.658;2.328;2022-12-16T01:12:13;-0.30;99.90
70550;DHT22;58101;48.658;2.328;2022-12-16T01:14:39;-0.40;99.90
70550;DHT22;58101;48.658;2.328;2022-12-16T01:17:05;-0.40;99.90
70550;DHT22;58101;48.658;2.328;2022-12-16T01:19:30;-0.40;99.90
70550;DHT22;58101;48.658;2.328;2022-12-16T01:21:56;-0.40;99.90
70550;DHT22;58101;48.658;2.328;2022-12-16T01:24:22;-0.50;99.90
70550;DHT22;58101;48.658;2.328;2022-12-16T01:26:47;-0.50;99.90
70550;DHT22;58101;48.658;2.328;2022-12-16T01:29:13;-0.50;99.90
70550;DHT22;58101;48.658;2.328;2022-12-16T01:31:39;-0.50;99.90
70550;DHT22;58101;48.658;2.328;2022-12-16T01:34:05;-0.50;99.90
70550;DHT22;58101;48.658;2.328;2022-12-16T01:36:30;-0.50;99.90
70550;DHT22;58101;48.658;2.328;2022-12-16T01:38:56;-0.50;99.90
70550;DHT22;58101;48.658;2.328;2022-12-16T01:41:22;-0.50;99.90
70550;DHT22;58101;48.658;2.328;2022-12-16T01:43:47;-0.50;99.90
70550;DHT22;58101;48.658;2.328;2022-12-16T01:48:55;-0.60;99.90
70550;DHT22;58101;48.658;2.328;2022-12-16T01:54:05;-0.70;99.90
70550;DHT22;58101;48.658;2.328;2022-12-16T01:56:32;-0.70;99.90
70550;DHT22;58101;48.658;2.328;2022-12-16T01:59:00;-0.80;99.90
70550;DHT22;58101;48.658;2.328;2022-12-16T02:01:26;-0.80;99.90
70550;DHT22;58101;48.658;2.328;2022-12-16T02:03:53;-0.90;99.90
70550;DHT22;58101;48.658;2.328;2022-12-16T02:06:20;-0.90;99.90
70550;DHT22;58101;48.658;2.328;2022-12-16T02:08:55;-0.90;99.90
70550;DHT22;58101;48.658;2.328;2022-12-16T02:12:02;-1.00;99.90
70550;DHT22;58101;48.658;2.328;2022-12-16T02:22:40;-1.10;99.90
70550;DHT22;58101;48.658;2.328;2022-12-16T02:41:21;-1.30;99.90
70550;DHT22;58101;48.658;2.328;2022-12-16T02:43:56;-1.30;99.90
70550;DHT22;58101;48.658;2.328;2022-12-16T02:46:26;-1.30;99.90
70550;DHT22;58101;48.658;2.328;2022-12-16T02:48:52;-1.30;99.90
70550;DHT22;58101;48.658;2.328;2022-12-16T02:51:19;-1.30;99.90
70550;DHT22;58101;48.658;2.328;2022-12-16T02:53:46;-1.30;99.90
70550;DHT22;58101;48.658;2.328;2022-12-16T03:04:37;-1.30;99.90
70550;DHT22;58101;48.658;2.328;2022-12-16T03:07:06;-1.40;99.90
70550;DHT22;58101;48.658;2.328;2022-12-16T03:09:34;-1.40;99.90
70550;DHT22;58101;48.658;2.328;2022-12-16T03:12:13;-1.30;99.90
70550;DHT22;58101;48.658;2.328;2022-12-16T03:14:44;-1.40;99.90
70550;DHT22;58101;48.658;2.328;2022-12-16T03:17:12;-1.40;99.90
70550;DHT22;58101;48.658;2.328;2022-12-16T03:19:39;-1.50;99.90
70550;DHT22;58101;48.658;2.328;2022-12-16T03:22:13;-1.50;99.90
70550;DHT22;58101;48.658;2.328;2022-12-16T03:24:47;-1.50;99.90
70550;DHT22;58101;48.658;2.328;2022-12-16T03:30:19;-1.50;99.90
70550;DHT22;58101;48.658;2.328;2022-12-16T03:33:02;-1.60;99.90
70550;DHT22;58101;48.658;2.328;2022-12-16T03:35:42;-1.60;99.90
70550;DHT22;58101;48.658;2.328;2022-12-16T03:38:10;-1.60;99.90
70550;DHT22;58101;48.658;2.328;2022-12-16T03:40:37;-1.60;99.90
70550;DHT22;58101;48.658;2.328;2022-12-16T03:43:04;-1.70;99.90
70550;DHT22;58101;48.658;2.328;2022-12-16T03:45:39;-1.70;99.90
70550;DHT22;58101;48.658;2.328;2022-12-16T03:48:07;-1.70;99.90
70550;DHT22;58101;48.658;2.328;2022-12-16T03:50:34;-1.70;99.90
70550;DHT22;58101;48.658;2.328;2022-12-16T03:53:00;-1.70;99.90
70550;DHT22;58101;48.658;2.328;2022-12-16T03:55:26;-1.70;99.90
70550;DHT22;58101;48.658;2.328;2022-12-16T03:57:52;-1.80;99.90
70550;DHT22;58101;48.658;2.328;2022-12-16T04:00:18;-1.80;99.90
70550;DHT22;58101;48.658;2.328;2022-12-16T04:02:44;-1.80;99.90
70550;DHT22;58101;48.658;2.328;2022-12-16T04:05:10;-1.80;99.90
70550;DHT22;58101;48.658;2.328;2022-12-16T04:07:35;-1.90;99.90
70550;DHT22;58101;48.658;2.328;2022-12-16T04:10:02;-1.90;99.90
70550;DHT22;58101;48.658;2.328;2022-12-16T04:12:28;-1.90;99.90
70550;DHT22;58101;48.658;2.328;2022-12-16T04:15:12;-1.90;99.90
70550;DHT22;58101;48.658;2.328;2022-12-16T04:17:56;-1.90;99.90
70550;DHT22;58101;48.658;2.328;2022-12-16T04:20:46;-1.90;99.90
70550;DHT22;58101;48.658;2.328;2022-12-16T04:23:32;-1.90;99.90
70550;DHT22;58101;48.658;2.328;2022-12-16T04:26:17;-1.90;99.90
70550;DHT22;58101;48.658;2.328;2022-12-16T04:28:43;-1.90;99.90
70550;DHT22;58101;48.658;2.328;2022-12-16T04:31:09;-1.90;99.90
70550;DHT22;58101;48.658;2.328;2022-12-16T04:33:35;-1.90;99.90
70550;DHT22;58101;48.658;2.328;2022-12-16T04:36:19;-1.90;99.90
70550;DHT22;58101;48.658;2.328;2022-12-16T04:39:03;-1.90;99.90
70550;DHT22;58101;48.658;2.328;2022-12-16T04:41:53;-2.00;99.90
70550;DHT22;58101;48.658;2.328;2022-12-16T04:44:39;-2.00;99.90
70550;DHT22;58101;48.658;2.328;2022-12-16T04:47:23;-2.00;99.90
70550;DHT22;58101;48.658;2.328;2022-12-16T04:50:08;-2.00;99.90
70550;DHT22;58101;48.658;2.328;2022-12-16T04:52:52;-1.90;99.90
70550;DHT22;58101;48.658;2.328;2022-12-16T04:55:36;-2.00;99.90
70550;DHT22;58101;48.658;2.328;2022-12-16T04:58:21;-1.90;99.90
70550;DHT22;58101;48.658;2.328;2022-12-16T05:01:06;-2.00;99.90
70550;DHT22;58101;48.658;2.328;2022-12-16T05:03:50;-2.00;99.90
70550;DHT22;58101;48.658;2.328;2022-12-16T05:06:34;-2.10;99.90
70550;DHT22;58101;48.658;2.328;2022-12-16T05:09:18;-2.10;99.90
70550;DHT22;58101;48.658;2.328;2022-12-16T05:12:02;-2.00;99.90
70550;DHT22;58101;48.658;2.328;2022-12-16T05:14:46;-2.00;99.90
70550;DHT22;58101;48.658;2.328;2022-12-16T05:17:30;-2.10;99.90
70550;DHT22;58101;48.658;2.328;2022-12-16T05:20:15;-2.10;99.90
70550;DHT22;58101;48.658;2.328;2022-12-16T05:22:59;-2.10;99.90
70550;DHT22;58101;48.658;2.328;2022-12-16T05:25:43;-2.10;99.90
70550;DHT22;58101;48.658;2.328;2022-12-16T05:28:27;-2.10;99.90
70550;DHT22;58101;48.658;2.328;2022-12-16T05:31:11;-2.20;99.90
70550;DHT22;58101;48.658;2.328;2022-12-16T05:33:56;-2.20;99.90
70550;DHT22;58101;48.658;2.328;2022-12-16T05:36:40;-2.20;99.90
70550;DHT22;58101;48.658;2.328;2022-12-16T05:39:24;-2.20;99.90
70550;DHT22;58101;48.658;2.328;2022-12-16T05:42:08;-2.20;99.90
70550;DHT22;58101;48.658;2.328;2022-12-16T05:44:52;-2.20;99.90
70550;DHT22;58101;48.658;2.328;2022-12-16T05:47:36;-2.10;99.90
70550;DHT22;58101;48.658;2.328;2022-12-16T05:50:20;-2.10;99.90
70550;DHT22;58101;48.658;2.328;2022-12-16T05:53:04;-2.10;99.90
70550;DHT22;58101;48.658;2.328;2022-12-16T05:55:48;-2.10;99.90
70550;DHT22;58101;48.658;2.328;2022-12-16T05:58:32;-2.10;99.90
70550;DHT22;58101;48.658;2.328;2022-12-16T06:01:16;-2.10;99.90
70550;DHT22;58101;48.658;2.328;2022-12-16T06:04:00;-2.10;99.90
70550;DHT22;58101;48.658;2.328;2022-12-16T06:06:44;-2.10;99.90
70550;DHT22;58101;48.658;2.328;2022-12-16T06:09:29;-2.10;99.90
70550;DHT22;58101;48.658;2.328;2022-12-16T06:12:13;-2.20;99.90
70550;DHT22;58101;48.658;2.328;2022-12-16T06:14:57;-2.20;99.90
70550;DHT22;58101;48.658;2.328;2022-12-16T06:17:48;-2.20;99.90
70550;DHT22;58101;48.658;2.328;2022-12-16T06:20:33;-2.20;99.90
70550;DHT22;58101;48.658;2.328;2022-12-16T06:23:17;-2.20;99.90
70550;DHT22;58101;48.658;2.328;2022-12-16T06:26:01;-2.30;99.90
70550;DHT22;58101;48.658;2.328;2022-12-16T06:28:46;-2.30;99.90
70550;DHT22;58101;48.658;2.328;2022-12-16T06:31:30;-2.30;99.90
70550;DHT22;58101;48.658;2.328;2022-12-16T06:34:14;-2.40;99.90
70550;DHT22;58101;48.658;2.328;2022-12-16T06:36:58;-2.40;99.90
70550;DHT22;58101;48.658;2.328;2022-12-16T06:39:42;-2.30;99.90
70550;DHT22;58101;48.658;2.328;2022-12-16T06:42:26;-2.40;99.90
70550;DHT22;58101;48.658;2.328;2022-12-16T06:45:11;-2.40;99.90
70550;DHT22;58101;48.658;2.328;2022-12-16T06:47:55;-2.40;99.90
70550;DHT22;58101;48.658;2.328;2022-12-16T06:50:39;-2.40;99.90
70550;DHT22;58101;48.658;2.328;2022-12-16T06:53:24;-2.40;99.90
70550;DHT22;58101;48.658;2.328;2022-12-16T06:56:08;-2.50;99.90
70550;DHT22;58101;48.658;2.328;2022-12-16T06:58:58;-2.50;99.90
70550;DHT22;58101;48.658;2.328;2022-12-16T07:01:42;-2.50;99.90
70550;DHT22;58101;48.658;2.328;2022-12-16T07:04:26;-2.50;99.90
70550;DHT22;58101;48.658;2.328;2022-12-16T07:07:10;-2.50;99.90
70550;DHT22;58101;48.658;2.328;2022-12-16T07:09:55;-2.50;99.90
70550;DHT22;58101;48.658;2.328;2022-12-16T07:12:39;-2.50;99.90
70550;DHT22;58101;48.658;2.328;2022-12-16T07:15:23;-2.50;99.90
70550;DHT22;58101;48.658;2.328;2022-12-16T07:18:07;-2.50;99.90
70550;DHT22;58101;48.658;2.328;2022-12-16T07:20:51;-2.50;99.90
70550;DHT22;58101;48.658;2.328;2022-12-16T07:23:35;-2.50;99.90
70550;DHT22;58101;48.658;2.328;2022-12-16T07:26:19;-2.50;99.90
70550;DHT22;58101;48.658;2.328;2022-12-16T07:29:03;-2.50;99.90
70550;DHT22;58101;48.658;2.328;2022-12-16T07:31:47;-2.50;99.90
70550;DHT22;58101;48.658;2.328;2022-12-16T07:34:31;-2.50;99.90
70550;DHT22;58101;48.658;2.328;2022-12-16T07:37:16;-2.40;99.90
70550;DHT22;58101;48.658;2.328;2022-12-16T07:40:00;-2.50;99.90
70550;DHT22;58101;48.658;2.328;2022-12-16T07:42:47;-2.50;99.90
70550;DHT22;58101;48.658;2.328;2022-12-16T07:45:31;-2.50;99.90
70550;DHT22;58101;48.658;2.328;2022-12-16T07:48:16;-2.50;99.90
70550;DHT22;58101;48.658;2.328;2022-12-16T07:51:00;-2.40;99.90
70550;DHT22;58101;48.658;2.328;2022-12-16T07:53:44;-2.40;99.90
70550;DHT22;58101;48.658;2.328;2022-12-16T07:56:28;-2.40;99.90
70550;DHT22;58101;48.658;2.328;2022-12-16T07:59:12;-2.40;99.90
70550;DHT22;58101;48.658;2.328;2022-12-16T08:01:56;-2.30;99.90
70550;DHT22;58101;48.658;2.328;2022-12-16T08:04:40;-2.30;99.90
70550;DHT22;58101;48.658;2.328;2022-12-16T08:07:24;-2.30;99.90
70550;DHT22;58101;48.658;2.328;2022-12-16T08:10:08;-2.20;99.90
70550;DHT22;58101;48.658;2.328;2022-12-16T08:13:03;-2.20;99.90
70550;DHT22;58101;48.658;2.328;2022-12-16T08:15:48;-2.20;99.90
70550;DHT22;58101;48.658;2.328;2022-12-16T08:18:32;-2.10;99.90
70550;DHT22;58101;48.658;2.328;2022-12-16T08:21:16;-2.00;99.90
70550;DHT22;58101;48.658;2.328;2022-12-16T08:24:00;-2.00;99.90
70550;DHT22;58101;48.658;2.328;2022-12-16T08:26:44;-1.90;99.90
70550;DHT22;58101;48.658;2.328;2022-12-16T08:29:28;-1.80;99.90
70550;DHT22;58101;48.658;2.328;2022-12-16T08:32:14;-1.70;99.90
70550;DHT22;58101;48.658;2.328;2022-12-16T08:34:58;-1.70;99.90
70550;DHT22;58101;48.658;2.328;2022-12-16T08:37:43;-1.60;99.90
70550;DHT22;58101;48.658;2.328;2022-12-16T08:40:27;-1.50;99.90
70550;DHT22;58101;48.658;2.328;2022-12-16T08:43:11;-1.50;99.90
70550;DHT22;58101;48.658;2.328;2022-12-16T08:45:56;-1.40;99.90
70550;DHT22;58101;48.658;2.328;2022-12-16T08:48:40;-1.30;99.90
70550;DHT22;58101;48.658;2.328;2022-12-16T08:51:24;-1.20;99.90
70550;DHT22;58101;48.658;2.328;2022-12-16T08:54:08;-1.10;99.90
70550;DHT22;58101;48.658;2.328;2022-12-16T08:56:53;-1.00;99.90
70550;DHT22;58101;48.658;2.328;2022-12-16T08:59:37;-0.90;99.90
70550;DHT22;58101;48.658;2.328;2022-12-16T09:02:21;-0.70;99.90
70550;DHT22;58101;48.658;2.328;2022-12-16T09:05:05;-0.40;99.90
70550;DHT22;58101;48.658;2.328;2022-12-16T09:07:49;0.60;99.90
70550;DHT22;58101;48.658;2.328;2022-12-16T09:10:34;2.50;99.90
70550;DHT22;58101;48.658;2.328;2022-12-16T09:13:18;4.60;99.90
70550;DHT22;58101;48.658;2.328;2022-12-16T09:16:02;6.70;99.20
70550;DHT22;58101;48.658;2.328;2022-12-16T09:18:46;8.50;90.30
70550;DHT22;58101;48.658;2.328;2022-12-16T09:21:30;9.80;80.10
70550;DHT22;58101;48.658;2.328;2022-12-16T09:24:14;11.10;73.60
70550;DHT22;58101;48.658;2.328;2022-12-16T09:26:58;12.10;67.90
70550;DHT22;58101;48.658;2.328;2022-12-16T09:29:42;12.60;62.90
70550;DHT22;58101;48.658;2.328;2022-12-16T09:32:27;13.10;60.20
70550;DHT22;58101;48.658;2.328;2022-12-16T09:35:11;13.40;58.20
70550;DHT22;58101;48.658;2.328;2022-12-16T09:37:55;13.60;56.10
70550;DHT22;58101;48.658;2.328;2022-12-16T09:40:41;13.80;54.00
70550;DHT22;58101;48.658;2.328;2022-12-16T09:46:57;14.50;52.70
70550;DHT22;58101;48.658;2.328;2022-12-16T09:49:51;14.10;51.10
70550;DHT22;58101;48.658;2.328;2022-12-16T09:52:41;13.10;52.70
70550;DHT22;58101;48.658;2.328;2022-12-16T09:55:36;11.80;54.40
70550;DHT22;58101;48.658;2.328;2022-12-16T09:58:22;10.60;57.60
70550;DHT22;58101;48.658;2.328;2022-12-16T10:01:11;9.20;60.70
70550;DHT22;58101;48.658;2.328;2022-12-16T10:03:57;7.90;64.70
70550;DHT22;58101;48.658;2.328;2022-12-16T10:06:46;6.80;68.90
70550;DHT22;58101;48.658;2.328;2022-12-16T10:12:58;5.00;80.70
70550;DHT22;58101;48.658;2.328;2022-12-16T10:22:14;4.00;91.80
70550;DHT22;58101;48.658;2.328;2022-12-16T10:28:17;3.50;96.50
70550;DHT22;58101;48.658;2.328;2022-12-16T10:31:11;3.20;97.90
70550;DHT22;58101;48.658;2.328;2022-12-16T10:33:55;3.00;99.80
70550;DHT22;58101;48.658;2.328;2022-12-16T10:36:40;2.90;99.90
70550;DHT22;58101;48.658;2.328;2022-12-16T10:39:39;2.80;99.90
70550;DHT22;58101;48.658;2.328;2022-12-16T10:42:30;2.70;99.90
70550;DHT22;58101;48.658;2.328;2022-12-16T10:45:28;2.90;99.90
70550;DHT22;58101;48.658;2.328;2022-12-16T10:48:13;2.60;99.90
70550;DHT22;58101;48.658;2.328;2022-12-16T10:50:59;2.50;99.90
70550;DHT22;58101;48.658;2.328;2022-12-16T10:53:45;2.40;99.90
70550;DHT22;58101;48.658;2.328;2022-12-16T10:59:37;2.20;99.90
70550;DHT22;58101;48.658;2.328;2022-12-16T11:02:28;2.20;99.90
70550;DHT22;58101;48.658;2.328;2022-12-16T11:08:24;2.00;99.90
70550;DHT22;58101;48.658;2.328;2022-12-16T11:11:29;2.00;99.90
70550;DHT22;58101;48.658;2.328;2022-12-16T11:17:18;1.90;99.90
70550;DHT22;58101;48.658;2.328;2022-12-16T11:23:14;1.80;99.90
70550;DHT22;58101;48.658;2.328;2022-12-16T11:26:18;1.90;99.90
70550;DHT22;58101;48.658;2.328;2022-12-16T11:35:08;1.80;99.90
70550;DHT22;58101;48.658;2.328;2022-12-16T11:37:53;1.90;99.90
70550;DHT22;58101;48.658;2.328;2022-12-16T11:40:39;1.90;99.90
70550;DHT22;58101;48.658;2.328;2022-12-16T11:43:24;1.90;99.90
70550;DHT22;58101;48.658;2.328;2022-12-16T11:46:23;2.00;99.90
70550;DHT22;58101;48.658;2.328;2022-12-16T11:49:16;2.00;99.90
70550;DHT22;58101;48.658;2.328;2022-12-16T11:52:03;2.00;99.90
70550;DHT22;58101;48.658;2.328;2022-12-16T11:55:24;2.10;99.90
70550;DHT22;58101;48.658;2.328;2022-12-16T12:01:16;2.00;99.90
70550;DHT22;58101;48.658;2.328;2022-12-16T12:04:01;2.10;99.90
70550;DHT22;58101;48.658;2.328;2022-12-16T12:09:58;2.10;99.90
70550;DHT22;58101;48.658;2.328;2022-12-16T12:12:51;2.20;99.90
70550;DHT22;58101;48.658;2.328;2022-12-16T12:15:56;2.30;99.90
70550;DHT22;58101;48.658;2.328;2022-12-16T12:19:07;2.40;99.90
70550;DHT22;58101;48.658;2.328;2022-12-16T12:22:08;2.60;99.90
70550;DHT22;58101;48.658;2.328;2022-12-16T12:37:56;2.50;99.90
70550;DHT22;58101;48.658;2.328;2022-12-16T12:41:00;2.50;99.90
70550;DHT22;58101;48.658;2.328;2022-12-16T12:44:19;2.70;99.90
70550;DHT22;58101;48.658;2.328;2022-12-16T12:47:08;3.00;99.90
70550;DHT22;58101;48.658;2.328;2022-12-16T12:50:07;3.50;99.60
70550;DHT22;58101;48.658;2.328;2022-12-16T12:58:45;4.10;93.40
70550;DHT22;58101;48.658;2.328;2022-12-16T13:01:33;4.30;92.10
70550;DHT22;58101;48.658;2.328;2022-12-16T13:04:21;4.40;91.30
70550;DHT22;58101;48.658;2.328;2022-12-16T13:07:07;4.50;90.30
70550;DHT22;58101;48.658;2.328;2022-12-16T13:10:36;4.40;90.10
70550;DHT22;58101;48.658;2.328;2022-12-16T13:13:33;4.60;88.40
70550;DHT22;58101;48.658;2.328;2022-12-16T13:28:32;4.10;89.80
70550;DHT22;58101;48.658;2.328;2022-12-16T13:31:18;4.00;90.70
70550;DHT22;58101;48.658;2.328;2022-12-16T13:34:07;3.90;90.70
70550;DHT22;58101;48.658;2.328;2022-12-16T13:37:04;3.80;91.30
70550;DHT22;58101;48.658;2.328;2022-12-16T13:45:40;3.50;92.80
70550;DHT22;58101;48.658;2.328;2022-12-16T13:48:35;3.40;92.90
70550;DHT22;58101;48.658;2.328;2022-12-16T13:54:33;3.20;94.40
70550;DHT22;58101;48.658;2.328;2022-12-16T13:57:22;3.20;94.50
70550;DHT22;58101;48.658;2.328;2022-12-16T14:00:20;3.00;94.70
70550;DHT22;58101;48.658;2.328;2022-12-16T14:03:17;3.10;94.80
70550;DHT22;58101;48.658;2.328;2022-12-16T14:06:04;3.10;94.90
70550;DHT22;58101;48.658;2.328;2022-12-16T14:08:51;3.00;95.10
70550;DHT22;58101;48.658;2.328;2022-12-16T14:11:46;3.00;95.20
70550;DHT22;58101;48.658;2.328;2022-12-16T14:14:38;3.00;95.20
70550;DHT22;58101;48.658;2.328;2022-12-16T14:17:38;2.90;95.70
70550;DHT22;58101;48.658;2.328;2022-12-16T14:20:36;2.90;95.80
70550;DHT22;58101;48.658;2.328;2022-12-16T14:23:31;2.90;96.00
70550;DHT22;58101;48.658;2.328;2022-12-16T14:26:16;2.80;96.50
70550;DHT22;58101;48.658;2.328;2022-12-16T14:29:02;2.80;96.70
70550;DHT22;58101;48.658;2.328;2022-12-16T14:31:47;2.70;97.00
70550;DHT22;58101;48.658;2.328;2022-12-16T14:34:33;2.70;97.30
70550;DHT22;58101;48.658;2.328;2022-12-16T14:37:36;2.60;97.60
70550;DHT22;58101;48.658;2.328;2022-12-16T14:40:31;2.60;97.70
70550;DHT22;58101;48.658;2.328;2022-12-16T14:43:23;2.50;97.90
70550;DHT22;58101;48.658;2.328;2022-12-16T14:49:11;2.40;98.30
70550;DHT22;58101;48.658;2.328;2022-12-16T14:51:57;2.40;98.50
70550;DHT22;58101;48.658;2.328;2022-12-16T14:54:42;2.40;98.80
70550;DHT22;58101;48.658;2.328;2022-12-16T14:57:29;2.30;99.00
70550;DHT22;58101;48.658;2.328;2022-12-16T15:00:22;2.20;98.90
70550;DHT22;58101;48.658;2.328;2022-12-16T15:05:54;2.10;99.30
70550;DHT22;58101;48.658;2.328;2022-12-16T15:08:55;2.10;99.60
70550;DHT22;58101;48.658;2.328;2022-12-16T15:11:41;2.00;99.80
70550;DHT22;58101;48.658;2.328;2022-12-16T15:14:31;1.90;99.50
70550;DHT22;58101;48.658;2.328;2022-12-16T15:17:23;1.90;99.50
70550;DHT22;58101;48.658;2.328;2022-12-16T15:20:14;1.90;99.60
70550;DHT22;58101;48.658;2.328;2022-12-16T15:23:00;1.80;99.70
70550;DHT22;58101;48.658;2.328;2022-12-16T15:25:48;1.80;99.90
70550;DHT22;58101;48.658;2.328;2022-12-16T15:31:32;1.70;99.90
70550;DHT22;58101;48.658;2.328;2022-12-16T15:34:27;1.60;99.90
70550;DHT22;58101;48.658;2.328;2022-12-16T15:37:24;1.60;99.90
70550;DHT22;58101;48.658;2.328;2022-12-16T15:40:27;1.50;99.90
70550;DHT22;58101;48.658;2.328;2022-12-16T15:46:18;1.50;99.90
70550;DHT22;58101;48.658;2.328;2022-12-16T15:49:03;1.40;99.90
70550;DHT22;58101;48.658;2.328;2022-12-16T15:51:49;1.30;99.90
70550;DHT22;58101;48.658;2.328;2022-12-16T15:54:51;1.30;99.90
70550;DHT22;58101;48.658;2.328;2022-12-16T15:57:37;1.20;99.90
70550;DHT22;58101;48.658;2.328;2022-12-16T16:00:29;1.20;99.90
70550;DHT22;58101;48.658;2.328;2022-12-16T16:03:27;1.10;99.90
70550;DHT22;58101;48.658;2.328;2022-12-16T16:06:21;1.00;99.90
70550;DHT22;58101;48.658;2.328;2022-12-16T16:12:04;0.90;99.90
70550;DHT22;58101;48.658;2.328;2022-12-16T16:14:48;0.90;99.90
70550;DHT22;58101;48.658;2.328;2022-12-16T16:17:33;0.80;99.90
70550;DHT22;58101;48.658;2.328;2022-12-16T16:20:17;0.80;99.90
70550;DHT22;58101;48.658;2.328;2022-12-16T16:23:02;0.80;99.90
70550;DHT22;58101;48.658;2.328;2022-12-16T16:25:47;0.80;99.90
70550;DHT22;58101;48.658;2.328;2022-12-16T16:28:32;0.70;99.90
70550;DHT22;58101;48.658;2.328;2022-12-16T16:31:17;0.70;99.90
70550;DHT22;58101;48.658;2.328;2022-12-16T16:34:01;0.60;99.90
70550;DHT22;58101;48.658;2.328;2022-12-16T16:36:47;0.60;99.90
70550;DHT22;58101;48.658;2.328;2022-12-16T16:39:34;0.50;99.90
70550;DHT22;58101;48.658;2.328;2022-12-16T16:42:18;0.50;99.90
70550;DHT22;58101;48.658;2.328;2022-12-16T16:45:03;0.40;99.90
70550;DHT22;58101;48.658;2.328;2022-12-16T16:47:47;0.40;99.90
70550;DHT22;58101;48.658;2.328;2022-12-16T16:50:31;0.30;99.90
70550;DHT22;58101;48.658;2.328;2022-12-16T16:53:15;0.30;99.90
70550;DHT22;58101;48.658;2.328;2022-12-16T16:55:59;0.30;99.90
70550;DHT22;58101;48.658;2.328;2022-12-16T16:58:44;0.30;99.90
70550;DHT22;58101;48.658;2.328;2022-12-16T17:01:28;0.30;99.90
70550;DHT22;58101;48.658;2.328;2022-12-16T17:04:12;0.20;99.90
70550;DHT22;58101;48.658;2.328;2022-12-16T17:06:57;0.30;99.90
70550;DHT22;58101;48.658;2.328;2022-12-16T17:09:41;0.20;99.90
70550;DHT22;58101;48.658;2.328;2022-12-16T17:12:27;0.40;99.90
70550;DHT22;58101;48.658;2.328;2022-12-16T17:15:22;0.20;99.90
70550;DHT22;58101;48.658;2.328;2022-12-16T17:18:07;0.20;99.90
70550;DHT22;58101;48.658;2.328;2022-12-16T17:20:52;0.10;99.90
70550;DHT22;58101;48.658;2.328;2022-12-16T17:23:36;0.10;99.90
70550;DHT22;58101;48.658;2.328;2022-12-16T17:26:20;0.10;99.90
70550;DHT22;58101;48.658;2.328;2022-12-16T17:29:07;0.10;99.90
70550;DHT22;58101;48.658;2.328;2022-12-16T17:31:55;0.00;99.90
70550;DHT22;58101;48.658;2.328;2022-12-16T17:34:39;0.00;99.90
70550;DHT22;58101;48.658;2.328;2022-12-16T17:37:24;-0.10;99.90
70550;DHT22;58101;48.658;2.328;2022-12-16T17:40:08;-0.10;99.90
70550;DHT22;58101;48.658;2.328;2022-12-16T17:42:52;-0.10;99.90
70550;DHT22;58101;48.658;2.328;2022-12-16T17:45:37;-0.20;99.90
70550;DHT22;58101;48.658;2.328;2022-12-16T17:48:21;-0.20;99.90
70550;DHT22;58101;48.658;2.328;2022-12-16T17:51:05;-0.20;99.90
70550;DHT22;58101;48.658;2.328;2022-12-16T17:53:50;-0.20;99.90
70550;DHT22;58101;48.658;2.328;2022-12-16T17:56:34;-0.30;99.90
70550;DHT22;58101;48.658;2.328;2022-12-16T17:59:18;-0.30;99.90
70550;DHT22;58101;48.658;2.328;2022-12-16T18:02:02;-0.30;99.90
70550;DHT22;58101;48.658;2.328;2022-12-16T18:04:46;-0.40;99.90
70550;DHT22;58101;48.658;2.328;2022-12-16T18:07:30;-0.40;99.90
70550;DHT22;58101;48.658;2.328;2022-12-16T18:10:14;-0.40;99.90
70550;DHT22;58101;48.658;2.328;2022-12-16T18:12:58;-0.40;99.90
70550;DHT22;58101;48.658;2.328;2022-12-16T18:15:42;-0.40;99.90
70550;DHT22;58101;48.658;2.328;2022-12-16T18:18:34;-0.40;99.90
70550;DHT22;58101;48.658;2.328;2022-12-16T18:21:18;-0.40;99.90
70550;DHT22;58101;48.658;2.328;2022-12-16T18:24:07;-0.40;99.90
70550;DHT22;58101;48.658;2.328;2022-12-16T18:26:52;-0.40;99.90
70550;DHT22;58101;48.658;2.328;2022-12-16T18:29:36;-0.40;99.90
70550;DHT22;58101;48.658;2.328;2022-12-16T18:32:20;-0.40;99.90
70550;DHT22;58101;48.658;2.328;2022-12-16T18:35:05;-0.40;99.90
70550;DHT22;58101;48.658;2.328;2022-12-16T18:37:49;-0.40;99.90
70550;DHT22;58101;48.658;2.328;2022-12-16T18:40:33;-0.40;99.90
70550;DHT22;58101;48.658;2.328;2022-12-16T18:43:17;-0.40;99.90
70550;DHT22;58101;48.658;2.328;2022-12-16T18:46:01;-0.40;99.90
70550;DHT22;58101;48.658;2.328;2022-12-16T18:48:45;-0.40;99.90
70550;DHT22;58101;48.658;2.328;2022-12-16T18:51:30;-0.40;99.90
70550;DHT22;58101;48.658;2.328;2022-12-16T18:54:14;-0.40;99.90
70550;DHT22;58101;48.658;2.328;2022-12-16T18:56:58;-0.40;99.90
70550;DHT22;58101;48.658;2.328;2022-12-16T18:59:42;-0.50;99.90
70550;DHT22;58101;48.658;2.328;2022-12-16T19:02:26;-0.50;99.90
70550;DHT22;58101;48.658;2.328;2022-12-16T19:05:10;-0.50;99.90
70550;DHT22;58101;48.658;2.328;2022-12-16T19:07:54;-0.50;99.90
70550;DHT22;58101;48.658;2.328;2022-12-16T19:10:39;-0.40;99.90
70550;DHT22;58101;48.658;2.328;2022-12-16T19:13:23;-0.40;99.90
70550;DHT22;58101;48.658;2.328;2022-12-16T19:16:07;-0.20;99.90
70550;DHT22;58101;48.658;2.328;2022-12-16T19:19:08;-0.30;99.90
70550;DHT22;58101;48.658;2.328;2022-12-16T19:21:52;-0.30;99.90
70550;DHT22;58101;48.658;2.328;2022-12-16T19:24:36;-0.30;99.90
70550;DHT22;58101;48.658;2.328;2022-12-16T19:27:20;-0.20;99.90
70550;DHT22;58101;48.658;2.328;2022-12-16T19:30:05;-0.20;99.90